Pomerene, AZ (85627)

10:53 AM MST on February 01, 2015 (GMT -0700)
Cascabel | Change Station
CLOSE
Current Station
Personal Weather Station
Location: Benson, AZ
Elevation: 3212 ft
Nearby Weather Stations
Active Advisory: Dense Fog Advisory

Elev 3212 ft 32.29 °N, 110.37 °W | Updated 6 minutes ago

Partly Cloudy
Partly Cloudy
56.0 °F
Feels Like 56.0 °F
N
3.0
Wind Variable Wind from NNW
Gusts 6.0 mph

Today
High -- | Low -- °F
--% Chance of Precip.
Yesterday
High -- | Low -- °F
Precip. -- in
7:15 AM 5:54 PM
Waxing Gibbous, 95% visible
Pressure 30.12 in
Visibility 4.0 miles
Clouds Overcast 300 ft
Dew Point 48 °F
Humidity 75%
Rainfall 0.02 in
Snow Depth Not available.
UV 1 out of 12
Pollen .50 out of 12
Air Quality Not available.
Flu Activity Not available.
SPECI KDMA 011703Z AUTO 24002KT 4SM BR OVC003 09/09 A3012 RMK AO2 VIS 1 1/4 RWY30 $

More Conditions Fewer Conditions

Pressure 30.12 in
Visibility 4.0 miles
Clouds Overcast 300 ft
Dew Point 48 °F
Humidity 75%
Rainfall 0.02 in
Snow Depth Not available.
UV 1 out of 12
Pollen .50 out of 12
Air Quality Not available.
Flu Activity Not available.
SPECI KDMA 011703Z AUTO 24002KT 4SM BR OVC003 09/09 A3012 RMK AO2 VIS 1 1/4 RWY30 $

More Conditions Fewer Conditions

10-Day Weather Forecast

Almanac

Astronomy

Feb. 01, 2015 Rise Set
Actual Time
Civil Twilight
Nautical Twilight
Astronomical Twilight
Moon
Length of Visible Light
Length of Day
Tomorrow will be .
, % of the Moon is Illuminated

Today's Extremes

State Highs State Lows

Community

WunderPhotos

Upload Photos

1,792,408 photos uploaded!

WunderBlogs® & News

Nearby

Air Quality

  Air Quality AQ Index Pollutant
Not available.

Snow Depth

Station Depth Elevation

Earthquake Activity

City Distance Mag. Time & Date
Minimum magnitude displayed is 2.5.

Coastal Water Temperatures

Place Temperature

Nearby Weather Stations